SVW251 EDDH-EGLF
Flight info
| Callsign | SVW251 |
|---|---|
| Flight time | N/A |
| Altitude | 38000 |
| Route | WSN5G WSN N125 ITMIZ DCT ABNED L980 LAM L179 ICTAM Q63 CPT CPT1V |
| Aircraft | A319/M-SDFGHIJ3J4J5RWXYZ/SB1D1 |
Departure
| Time | 2026-04-24 19:31 |
|---|---|
| Airport | Hamburg Helmut Schmidt Airport (EDDH) |
Arrival
| Time | N/A |
|---|---|
| Airport | Farnborough Airport (EGLF) |
| Time | Latitude | Longitude | Altitude | Speed | Heading |
|---|---|---|---|---|---|
| 2026-04-24 19:09 | 53.62843 | 9.99126 | 47 ft | 0 kts | 63° |
| 2026-04-24 19:15 | 53.62841 | 9.99120 | 47 ft | 3 kts | 63° |
| 2026-04-24 19:16 | 53.62837 | 9.99108 | 45 ft | 0 kts | 63° |
| 2026-04-24 19:19 | 53.62833 | 9.99094 | 45 ft | 4 kts | 62° |
| 2026-04-24 19:19 | 53.62820 | 9.99055 | 44 ft | 4 kts | 59° |
| 2026-04-24 19:19 | 53.62806 | 9.99016 | 44 ft | 4 kts | 62° |
| 2026-04-24 19:19 | 53.62797 | 9.98976 | 42 ft | 4 kts | 96° |
| 2026-04-24 19:20 | 53.62800 | 9.98959 | 43 ft | 0 kts | 153° |
| 2026-04-24 19:20 | 53.62797 | 9.98961 | 42 ft | 1 kts | 153° |
| 2026-04-24 19:20 | 53.62780 | 9.98976 | 42 ft | 4 kts | 153° |
| 2026-04-24 19:21 | 53.62745 | 9.99006 | 47 ft | 7 kts | 153° |
| 2026-04-24 19:21 | 53.62725 | 9.99024 | 47 ft | 0 kts | 152° |
| 2026-04-24 19:21 | 53.62723 | 9.99026 | 47 ft | 1 kts | 152° |
| 2026-04-24 19:21 | 53.62703 | 9.99043 | 47 ft | 5 kts | 152° |
| 2026-04-24 19:22 | 53.62679 | 9.99065 | 45 ft | 7 kts | 152° |
| 2026-04-24 19:22 | 53.62609 | 9.99124 | 47 ft | 10 kts | 153° |
| 2026-04-24 19:22 | 53.62580 | 9.99229 | 47 ft | 12 kts | 77° |
| 2026-04-24 19:22 | 53.62593 | 9.99376 | 47 ft | 14 kts | 81° |
| 2026-04-24 19:23 | 53.62609 | 9.99514 | 45 ft | 5 kts | 77° |
| 2026-04-24 19:23 | 53.62620 | 9.99590 | 47 ft | 8 kts | 76° |
| 2026-04-24 19:23 | 53.62626 | 9.99642 | 46 ft | 4 kts | 79° |
| 2026-04-24 19:23 | 53.62630 | 9.99677 | 47 ft | 1 kts | 79° |
| 2026-04-24 19:24 | 53.62631 | 9.99687 | 47 ft | 2 kts | 79° |
| 2026-04-24 19:24 | 53.62633 | 9.99705 | 47 ft | 1 kts | 79° |
| 2026-04-24 19:24 | 53.62637 | 9.99739 | 47 ft | 5 kts | 81° |
| 2026-04-24 19:24 | 53.62637 | 9.99742 | 46 ft | 0 kts | 81° |
| 2026-04-24 19:27 | 53.62637 | 9.99745 | 65 ft | 0 kts | 81° |
| 2026-04-24 19:29 | 53.62637 | 9.99746 | 65 ft | 0 kts | 81° |
| 2026-04-24 19:29 | 53.62638 | 9.99750 | 66 ft | 0 kts | 80° |
| 2026-04-24 19:30 | 53.62640 | 9.99769 | 55 ft | 6 kts | 80° |
| 2026-04-24 19:31 | 53.62647 | 9.99902 | 47 ft | 15 kts | 64° |
| 2026-04-24 19:31 | 53.62689 | 9.99899 | 44 ft | 7 kts | 334° |
| 2026-04-24 19:31 | 53.63096 | 9.99547 | 46 ft | 121 kts | 332° |
| 2026-04-24 19:31 | 53.63995 | 9.98773 | 686 ft | 148 kts | 328° |
| 2026-04-24 19:32 | 53.64944 | 9.97967 | 1708 ft | 161 kts | 330° |
| 2026-04-24 19:32 | 53.66004 | 9.97053 | 2354 ft | 182 kts | 332° |
| 2026-04-24 19:32 | 53.67174 | 9.96049 | 3188 ft | 192 kts | 333° |
| 2026-04-24 19:32 | 53.68366 | 9.95026 | 4333 ft | 193 kts | 333° |
| 2026-04-24 19:33 | 53.69578 | 9.93985 | 5413 ft | 198 kts | 332° |
| 2026-04-24 19:33 | 53.70655 | 9.92483 | 6440 ft | 207 kts | 309° |
| 2026-04-24 19:33 | 53.71255 | 9.90221 | 7350 ft | 225 kts | 285° |
| 2026-04-24 19:33 | 53.71133 | 9.87405 | 7972 ft | 261 kts | 258° |
| 2026-04-24 19:34 | 53.70534 | 9.84412 | 8896 ft | 274 kts | 256° |
| 2026-04-24 19:34 | 53.69903 | 9.81323 | 9739 ft | 282 kts | 256° |
| 2026-04-24 19:34 | 53.69265 | 9.78186 | 10029 ft | 282 kts | 257° |
| 2026-04-24 19:34 | 53.68628 | 9.75020 | 10129 ft | 297 kts | 257° |
| 2026-04-24 19:35 | 53.67939 | 9.71479 | 10332 ft | 333 kts | 257° |
| 2026-04-24 19:35 | 53.67190 | 9.67630 | 10721 ft | 358 kts | 256° |
| 2026-04-24 19:35 | 53.66391 | 9.63565 | 11363 ft | 370 kts | 256° |
| 2026-04-24 19:35 | 53.65517 | 9.59449 | 12221 ft | 377 kts | 250° |
| 2026-04-24 19:36 | 53.64232 | 9.55536 | 13124 ft | 386 kts | 239° |
| 2026-04-24 19:36 | 53.62664 | 9.51894 | 14012 ft | 390 kts | 238° |
| 2026-04-24 19:36 | 53.61062 | 9.48189 | 14802 ft | 394 kts | 237° |
| 2026-04-24 19:36 | 53.59446 | 9.44432 | 15565 ft | 398 kts | 237° |
| 2026-04-24 19:37 | 53.57817 | 9.40633 | 16337 ft | 402 kts | 237° |
| 2026-04-24 19:37 | 53.56174 | 9.36808 | 17079 ft | 405 kts | 237° |
| 2026-04-24 19:37 | 53.54510 | 9.32942 | 17806 ft | 409 kts | 237° |
| 2026-04-24 19:37 | 53.52834 | 9.29055 | 18509 ft | 413 kts | 237° |
| 2026-04-24 19:38 | 53.51145 | 9.25143 | 19105 ft | 416 kts | 237° |
| 2026-04-24 19:38 | 53.49441 | 9.21200 | 19709 ft | 418 kts | 237° |
| 2026-04-24 19:38 | 53.47722 | 9.17234 | 20313 ft | 421 kts | 237° |
| 2026-04-24 19:38 | 53.46206 | 9.13046 | 20875 ft | 420 kts | 248° |
| 2026-04-24 19:39 | 53.45104 | 9.08515 | 21449 ft | 421 kts | 250° |
| 2026-04-24 19:39 | 53.44014 | 9.03933 | 22000 ft | 423 kts | 250° |
| 2026-04-24 19:39 | 53.42927 | 8.99332 | 22541 ft | 426 kts | 250° |
| 2026-04-24 19:39 | 53.41833 | 8.94701 | 23070 ft | 428 kts | 250° |
| 2026-04-24 19:40 | 53.40729 | 8.90052 | 23583 ft | 430 kts | 250° |
| 2026-04-24 19:40 | 53.39615 | 8.85390 | 24053 ft | 432 kts | 250° |
| 2026-04-24 19:40 | 53.38491 | 8.80705 | 24490 ft | 433 kts | 250° |
| 2026-04-24 19:40 | 53.37365 | 8.76020 | 24922 ft | 435 kts | 249° |
| 2026-04-24 19:41 | 53.36233 | 8.71319 | 25355 ft | 436 kts | 249° |
| 2026-04-24 19:41 | 53.35097 | 8.66612 | 25775 ft | 437 kts | 249° |
| 2026-04-24 19:41 | 53.33956 | 8.61893 | 26193 ft | 438 kts | 249° |
| 2026-04-24 19:41 | 53.32813 | 8.57173 | 26595 ft | 439 kts | 249° |
| 2026-04-24 19:42 | 53.31674 | 8.52491 | 26981 ft | 440 kts | 249° |
| 2026-04-24 19:42 | 53.30520 | 8.47748 | 27406 ft | 440 kts | 249° |
| 2026-04-24 19:42 | 53.29368 | 8.43022 | 27995 ft | 437 kts | 249° |
| 2026-04-24 19:42 | 53.28223 | 8.38334 | 28629 ft | 434 kts | 250° |
| 2026-04-24 19:43 | 53.27085 | 8.33687 | 29285 ft | 430 kts | 250° |
| 2026-04-24 19:43 | 53.25935 | 8.29010 | 29946 ft | 427 kts | 250° |
| 2026-04-24 19:43 | 53.24811 | 8.24445 | 30572 ft | 423 kts | 250° |
| 2026-04-24 19:43 | 53.23695 | 8.19919 | 31132 ft | 421 kts | 250° |
| 2026-04-24 19:44 | 53.22596 | 8.15469 | 31630 ft | 419 kts | 249° |
| 2026-04-24 19:44 | 53.21487 | 8.10989 | 32163 ft | 417 kts | 249° |
| 2026-04-24 19:44 | 53.20380 | 8.06532 | 32727 ft | 415 kts | 249° |
| 2026-04-24 19:44 | 53.19278 | 8.02107 | 33305 ft | 412 kts | 249° |
| 2026-04-24 19:45 | 53.18183 | 7.97713 | 33904 ft | 409 kts | 249° |
| 2026-04-24 19:45 | 53.17095 | 7.93346 | 34460 ft | 406 kts | 249° |
| 2026-04-24 19:45 | 53.16009 | 7.88992 | 34912 ft | 405 kts | 249° |
| 2026-04-24 19:45 | 53.14925 | 7.84650 | 35319 ft | 406 kts | 249° |
| 2026-04-24 19:46 | 53.13838 | 7.80306 | 35703 ft | 407 kts | 249° |
| 2026-04-24 19:46 | 53.12743 | 7.75949 | 36083 ft | 408 kts | 249° |
| 2026-04-24 19:46 | 53.11644 | 7.71589 | 36444 ft | 409 kts | 249° |
| 2026-04-24 19:46 | 53.10916 | 7.68703 | 36673 ft | 409 kts | 249° |
| 2026-04-24 19:47 | 53.09810 | 7.64333 | 37035 ft | 410 kts | 249° |
| 2026-04-24 19:47 | 53.08700 | 7.59963 | 37353 ft | 412 kts | 249° |
| 2026-04-24 19:47 | 53.07577 | 7.55545 | 37680 ft | 413 kts | 249° |
| 2026-04-24 19:47 | 53.06455 | 7.51134 | 38028 ft | 414 kts | 249° |
| 2026-04-24 19:48 | 53.05330 | 7.46712 | 38198 ft | 416 kts | 249° |
| 2026-04-24 19:48 | 53.01945 | 7.33474 | 38197 ft | 416 kts | 249° |
| 2026-04-24 19:49 | 52.97401 | 7.15836 | 38226 ft | 415 kts | 249° |
| 2026-04-24 19:50 | 52.92833 | 6.98244 | 38232 ft | 416 kts | 249° |
| 2026-04-24 19:51 | 52.89389 | 6.85054 | 38235 ft | 416 kts | 249° |
| 2026-04-24 19:52 | 52.85932 | 6.71866 | 38236 ft | 416 kts | 249° |
| 2026-04-24 19:52 | 52.83608 | 6.63074 | 38242 ft | 417 kts | 248° |
| 2026-04-24 19:53 | 52.81281 | 6.54316 | 38227 ft | 416 kts | 248° |
| 2026-04-24 19:54 | 52.77798 | 6.41238 | 38246 ft | 416 kts | 248° |
| 2026-04-24 19:54 | 52.75454 | 6.32500 | 38247 ft | 416 kts | 248° |
| 2026-04-24 19:55 | 52.73486 | 6.25177 | 38251 ft | 416 kts | 248° |
| 2026-04-24 19:55 | 52.70751 | 6.15023 | 38256 ft | 416 kts | 248° |
| 2026-04-24 19:56 | 52.68390 | 6.06309 | 38256 ft | 416 kts | 248° |
| 2026-04-24 19:56 | 52.66021 | 5.97598 | 38273 ft | 416 kts | 248° |
| 2026-04-24 19:57 | 52.63652 | 5.88901 | 38272 ft | 416 kts | 248° |
| 2026-04-24 19:57 | 52.61273 | 5.80217 | 38247 ft | 416 kts | 248° |
| 2026-04-24 19:58 | 52.58887 | 5.71547 | 38253 ft | 416 kts | 248° |
| 2026-04-24 19:58 | 52.56506 | 5.62929 | 38258 ft | 416 kts | 248° |
| 2026-04-24 19:59 | 52.54109 | 5.54268 | 38276 ft | 416 kts | 248° |
| 2026-04-24 19:59 | 52.51710 | 5.45619 | 38287 ft | 416 kts | 248° |
| 2026-04-24 20:00 | 52.49307 | 5.36988 | 38286 ft | 416 kts | 248° |
| 2026-04-24 20:00 | 52.46893 | 5.28366 | 38286 ft | 416 kts | 248° |
| 2026-04-24 20:01 | 52.44476 | 5.19756 | 38277 ft | 415 kts | 248° |
| 2026-04-24 20:01 | 52.42068 | 5.11218 | 38275 ft | 415 kts | 247° |
| 2026-04-24 20:02 | 52.40028 | 5.04028 | 38265 ft | 415 kts | 247° |
| 2026-04-24 20:02 | 52.37190 | 4.94063 | 38267 ft | 416 kts | 247° |
| 2026-04-24 20:03 | 52.34747 | 4.85493 | 38273 ft | 416 kts | 247° |
| 2026-04-24 20:03 | 52.32300 | 4.76927 | 38275 ft | 415 kts | 247° |
| 2026-04-24 20:04 | 52.29845 | 4.68384 | 38275 ft | 415 kts | 247° |
| 2026-04-24 20:04 | 52.27379 | 4.59839 | 38274 ft | 415 kts | 247° |
| 2026-04-24 20:05 | 52.24910 | 4.51315 | 38274 ft | 415 kts | 247° |
| 2026-04-24 20:05 | 52.22435 | 4.42795 | 38274 ft | 415 kts | 247° |
| 2026-04-24 20:06 | 52.19959 | 4.34296 | 38249 ft | 415 kts | 247° |
| 2026-04-24 20:06 | 52.17486 | 4.25836 | 38250 ft | 416 kts | 246° |
| 2026-04-24 20:07 | 52.15391 | 4.18703 | 38254 ft | 417 kts | 246° |
| 2026-04-24 20:07 | 52.12475 | 4.08809 | 38260 ft | 417 kts | 246° |
| 2026-04-24 20:08 | 52.09965 | 4.00286 | 38260 ft | 418 kts | 246° |
| 2026-04-24 20:08 | 52.07441 | 3.91765 | 38264 ft | 418 kts | 246° |
| 2026-04-24 20:09 | 52.04929 | 3.83306 | 38269 ft | 418 kts | 246° |
| 2026-04-24 20:09 | 52.02387 | 3.74813 | 38268 ft | 418 kts | 246° |
| 2026-04-24 20:10 | 51.99831 | 3.66322 | 38270 ft | 418 kts | 246° |
| 2026-04-24 20:10 | 51.97282 | 3.57840 | 38246 ft | 418 kts | 246° |